Time;durP1;ratioP1;P1;durP2;ratioP2;P2;SDS_P1;SDS_P2;PMS_P1;PMS_P2;Temp;Humidity;BMP_temperature;BMP_pressure;BME280_temperature;BME280_humidity;BME280_pressure;Samples;Min_cycle;Max_cycle;Signal;HPM_P1;HPM_P2
2023/07/25 00:00:10;;;;;;;5.10;2.00;;;17.70;99.90;;;;;;5028399;28;20701;-64
2023/07/25 00:02:36;;;;;;;3.10;2.27;;;17.70;99.90;;;;;;5028628;28;20194;-65
2023/07/25 00:05:05;;;;;;;2.33;2.13;;;17.70;99.90;;;;;;5028304;28;20431;-64
2023/07/25 00:07:31;;;;;;;5.53;2.53;;;17.70;99.90;;;;;;5028445;28;20183;-64
2023/07/25 00:09:58;;;;;;;2.80;1.83;;;17.60;99.90;;;;;;5028489;28;21047;-64
2023/07/25 00:12:24;;;;;;;5.00;3.13;;;17.60;99.90;;;;;;5028318;28;20599;-64
2023/07/25 00:14:49;;;;;;;4.37;2.60;;;17.70;99.90;;;;;;5028321;28;20420;-63
2023/07/25 00:17:15;;;;;;;4.80;2.47;;;17.60;99.90;;;;;;5028280;28;20454;-64
2023/07/25 00:19:41;;;;;;;8.03;2.57;;;17.60;99.90;;;;;;5028221;28;20239;-64
2023/07/25 00:22:07;;;;;;;3.00;2.43;;;17.60;99.90;;;;;;5028269;28;20248;-64
2023/07/25 00:24:32;;;;;;;9.73;2.60;;;17.60;99.90;;;;;;5028323;28;20508;-64
2023/07/25 00:26:58;;;;;;;3.93;2.47;;;17.60;99.90;;;;;;5028373;28;20210;-64
2023/07/25 00:29:23;;;;;;;2.80;2.50;;;17.60;99.90;;;;;;5028225;28;20191;-64
2023/07/25 00:31:49;;;;;;;2.97;2.50;;;17.60;99.90;;;;;;5027958;28;20224;-64
2023/07/25 00:34:15;;;;;;;2.43;2.17;;;17.50;99.90;;;;;;5028111;28;20191;-64
2023/07/25 00:36:40;;;;;;;2.53;2.33;;;17.50;99.90;;;;;;5028256;28;20230;-64
2023/07/25 00:39:06;;;;;;;4.03;2.63;;;17.50;99.90;;;;;;5028364;28;20186;-64
2023/07/25 00:41:31;;;;;;;5.60;3.23;;;17.40;99.90;;;;;;5028181;28;20231;-64
2023/07/25 00:43:57;;;;;;;4.40;2.57;;;17.50;99.90;;;;;;5028041;28;20285;-63
2023/07/25 00:46:23;;;;;;;3.53;2.43;;;17.40;99.90;;;;;;5027869;28;20196;-64
2023/07/25 00:48:49;;;;;;;3.90;2.60;;;17.40;99.90;;;;;;5027900;28;20570;-64
2023/07/25 00:51:15;;;;;;;4.43;2.57;;;17.40;99.90;;;;;;5027998;28;20477;-64
2023/07/25 00:53:41;;;;;;;3.20;2.50;;;17.50;99.90;;;;;;5028105;28;21059;-64
2023/07/25 00:56:09;;;;;;;5.10;2.70;;;17.50;99.90;;;;;;5028093;28;20968;-64
2023/07/25 00:58:34;;;;;;;6.43;2.50;;;17.50;99.90;;;;;;5028105;28;20279;-64
2023/07/25 01:01:04;;;;;;;2.53;2.33;;;17.50;99.90;;;;;;5028340;28;20523;-64
2023/07/25 01:03:32;;;;;;;4.33;2.57;;;17.50;99.90;;;;;;5028066;28;20190;-64
2023/07/25 01:06:01;;;;;;;5.20;2.63;;;17.50;99.90;;;;;;5031044;28;20423;-64
2023/07/25 01:08:27;;;;;;;4.83;3.40;;;17.50;99.90;;;;;;5031790;28;20429;-64
2023/07/25 01:10:53;;;;;;;5.83;2.97;;;17.50;99.90;;;;;;5031430;28;20946;-64
2023/07/25 01:13:19;;;;;;;5.57;3.03;;;17.50;99.90;;;;;;5031638;28;20548;-64
2023/07/25 01:15:44;;;;;;;5.80;2.43;;;17.50;99.90;;;;;;5031948;28;20463;-64
2023/07/25 01:18:10;;;;;;;3.70;2.60;;;17.50;99.90;;;;;;5031487;28;20196;-64
2023/07/25 01:20:37;;;;;;;3.63;2.70;;;17.50;99.90;;;;;;5031414;28;20215;-64
2023/07/25 01:23:05;;;;;;;3.50;2.70;;;17.60;99.90;;;;;;5031485;28;20430;-64
2023/07/25 01:25:31;;;;;;;3.20;2.67;;;17.60;99.90;;;;;;5031439;28;20539;-64
2023/07/25 01:27:56;;;;;;;2.97;2.67;;;17.60;99.90;;;;;;5031428;28;20434;-64
2023/07/25 01:30:22;;;;;;;5.60;3.00;;;17.70;99.90;;;;;;5031143;28;20267;-63
2023/07/25 01:32:48;;;;;;;4.80;2.83;;;17.70;99.90;;;;;;5031259;28;20205;-64
2023/07/25 01:35:13;;;;;;;3.60;2.80;;;17.80;99.90;;;;;;5031397;28;20224;-64
2023/07/25 01:37:39;;;;;;;4.50;2.73;;;17.80;99.90;;;;;;5031544;28;20195;-63
2023/07/25 01:40:05;;;;;;;5.00;3.07;;;17.90;99.90;;;;;;5031358;28;20211;-63
2023/07/25 01:42:31;;;;;;;3.63;2.70;;;17.80;99.90;;;;;;5031293;28;20276;-64
2023/07/25 01:44:57;;;;;;;4.33;2.73;;;17.80;99.90;;;;;;5031360;28;20433;-64
2023/07/25 01:47:25;;;;;;;3.20;2.20;;;17.80;99.90;;;;;;5031272;28;20794;-64
2023/07/25 01:49:52;;;;;;;3.77;2.83;;;17.80;99.90;;;;;;5031072;28;20235;-63
2023/07/25 01:52:18;;;;;;;6.20;2.17;;;17.90;99.90;;;;;;5031290;28;20484;-64
2023/07/25 01:54:44;;;;;;;5.33;2.53;;;17.90;99.90;;;;;;5031239;28;20422;-64
2023/07/25 01:57:10;;;;;;;3.90;3.33;;;17.80;99.90;;;;;;5031317;28;20425;-64
2023/07/25 01:59:35;;;;;;;2.57;2.37;;;17.80;99.90;;;;;;5031261;28;20241;-64
2023/07/25 02:02:01;;;;;;;6.77;2.70;;;17.80;99.90;;;;;;5031475;28;20188;-63
2023/07/25 02:04:27;;;;;;;2.70;2.37;;;17.90;99.90;;;;;;5031502;28;20550;-63
2023/07/25 02:06:52;;;;;;;6.60;2.40;;;17.80;99.90;;;;;;5031515;28;20187;-63
2023/07/25 02:09:18;;;;;;;6.40;2.00;;;17.80;99.90;;;;;;5031340;28;20622;-64
2023/07/25 02:11:43;;;;;;;2.90;2.27;;;17.80;99.90;;;;;;5031126;28;20220;-64
2023/07/25 02:14:09;;;;;;;3.00;2.50;;;17.80;99.90;;;;;;5031159;28;20220;-63
2023/07/25 02:16:36;;;;;;;2.80;2.53;;;17.80;99.90;;;;;;5031049;28;20211;-64
2023/07/25 02:19:03;;;;;;;3.13;2.27;;;17.80;99.90;;;;;;5031121;28;20284;-63
2023/07/25 02:21:29;;;;;;;5.00;2.80;;;17.80;99.90;;;;;;5031280;28;20527;-64
2023/07/25 02:23:54;;;;;;;4.83;2.70;;;17.80;99.90;;;;;;5031035;28;21224;-64
2023/07/25 02:26:20;;;;;;;3.20;2.53;;;17.90;99.90;;;;;;5030823;28;20190;-64
2023/07/25 02:28:45;;;;;;;5.03;2.77;;;17.80;99.90;;;;;;5030344;28;20198;-64
2023/07/25 02:31:11;;;;;;;4.10;2.90;;;17.90;99.90;;;;;;5030105;28;20305;-64
2023/07/25 02:33:38;;;;;;;3.80;1.93;;;17.90;99.90;;;;;;5030221;28;20831;-64
2023/07/25 02:36:05;;;;;;;2.60;2.13;;;17.80;99.90;;;;;;5030194;28;20281;-64
2023/07/25 02:38:31;;;;;;;5.00;3.20;;;17.80;99.90;;;;;;5030178;28;20547;-64
2023/07/25 02:40:56;;;;;;;6.47;3.30;;;17.70;99.90;;;;;;5029893;28;21020;-64
2023/07/25 02:43:23;;;;;;;3.93;2.97;;;17.50;99.90;;;;;;5029994;28;20427;-64
2023/07/25 02:45:49;;;;;;;5.67;3.47;;;17.40;99.90;;;;;;5029889;28;20190;-64
2023/07/25 02:48:15;;;;;;;5.43;3.10;;;17.30;99.90;;;;;;5030151;28;20863;-63
2023/07/25 02:50:41;;;;;;;5.07;3.60;;;17.20;99.90;;;;;;5029641;28;20602;-64
2023/07/25 02:53:07;;;;;;;5.30;4.10;;;17.00;99.90;;;;;;5029696;28;20501;-64
2023/07/25 02:55:32;;;;;;;6.23;4.30;;;16.90;99.90;;;;;;5029664;28;20192;-64
2023/07/25 02:57:58;;;;;;;5.83;3.50;;;16.80;99.90;;;;;;5029582;28;20192;-64
2023/07/25 03:00:24;;;;;;;5.33;4.23;;;16.60;99.90;;;;;;5029530;28;20208;-63
2023/07/25 03:02:50;;;;;;;6.10;3.93;;;16.60;99.90;;;;;;5029385;28;20290;-63
2023/07/25 03:05:16;;;;;;;6.40;4.33;;;16.40;99.90;;;;;;5029325;28;21237;-63
2023/07/25 03:07:42;;;;;;;4.40;3.60;;;16.30;99.90;;;;;;5029312;28;20824;-63
2023/07/25 03:10:08;;;;;;;9.27;5.07;;;16.20;99.90;;;;;;5029131;28;20497;-63
2023/07/25 03:12:33;;;;;;;7.03;3.93;;;16.10;99.90;;;;;;5029268;28;20638;-64
2023/07/25 03:14:59;;;;;;;8.03;4.20;;;16.20;99.90;;;;;;5029277;28;20426;-63
2023/07/25 03:17:25;;;;;;;6.40;3.80;;;16.10;99.90;;;;;;5029362;28;20205;-63
2023/07/25 03:19:50;;;;;;;5.17;4.37;;;16.10;99.90;;;;;;5029122;28;20209;-63
2023/07/25 03:22:19;;;;;;;4.90;3.60;;;16.10;99.90;;;;;;5029139;28;20194;-64
2023/07/25 03:24:44;;;;;;;5.27;4.33;;;16.10;99.90;;;;;;5029023;28;20510;-64
2023/07/25 03:27:10;;;;;;;5.03;4.00;;;16.00;99.90;;;;;;5028549;28;20534;-63
2023/07/25 03:29:36;;;;;;;7.07;4.00;;;16.00;99.90;;;;;;5028862;28;20712;-63
2023/07/25 03:32:01;;;;;;;7.43;4.27;;;16.00;99.90;;;;;;5028958;28;20190;-63
2023/07/25 03:34:27;;;;;;;9.67;3.90;;;15.90;99.90;;;;;;5029157;28;20325;-63
2023/07/25 03:36:53;;;;;;;5.30;3.87;;;15.90;99.90;;;;;;5029058;28;20613;-64
2023/07/25 03:39:19;;;;;;;4.70;4.13;;;16.00;99.90;;;;;;5028787;28;20190;-64
2023/07/25 03:41:45;;;;;;;4.90;3.60;;;16.00;99.90;;;;;;5028944;28;20272;-63
2023/07/25 03:44:16;;;;;;;5.50;3.80;;;15.90;99.90;;;;;;5028942;28;20517;-63
2023/07/25 03:46:42;;;;;;;7.13;3.60;;;15.90;99.90;;;;;;5028800;28;20206;-63
2023/07/25 03:49:08;;;;;;;4.50;3.53;;;15.90;99.90;;;;;;5028505;28;20823;-63
2023/07/25 03:51:33;;;;;;;8.60;3.67;;;15.80;99.90;;;;;;5028469;28;20226;-63
2023/07/25 03:53:59;;;;;;;4.90;3.33;;;15.80;99.90;;;;;;5028561;28;20183;-63
2023/07/25 03:56:25;;;;;;;5.03;3.93;;;15.80;99.90;;;;;;5028590;28;20252;-63
2023/07/25 03:58:50;;;;;;;5.70;4.47;;;15.90;99.90;;;;;;5028549;28;20199;-63
2023/07/25 04:01:16;;;;;;;5.20;3.87;;;15.90;99.90;;;;;;5028334;28;20213;-63
2023/07/25 04:03:41;;;;;;;4.40;3.70;;;15.90;99.90;;;;;;5028585;28;20195;-63
2023/07/25 04:06:07;;;;;;;4.43;3.80;;;15.90;99.90;;;;;;5028476;28;20209;-63
2023/07/25 04:08:32;;;;;;;5.00;3.97;;;15.90;99.90;;;;;;5028420;28;20210;-64
2023/07/25 04:10:58;;;;;;;8.13;4.13;;;15.90;99.90;;;;;;5028234;28;20223;-63
2023/07/25 04:13:23;;;;;;;5.27;4.23;;;15.90;99.90;;;;;;5028373;28;20636;-63
2023/07/25 04:15:49;;;;;;;7.53;4.60;;;15.90;99.90;;;;;;5028500;28;20182;-63
2023/07/25 04:18:15;;;;;;;5.07;4.07;;;15.90;99.90;;;;;;5028341;28;20727;-63
2023/07/25 04:20:40;;;;;;;7.40;4.47;;;15.90;99.90;;;;;;5028294;28;20203;-63
2023/07/25 04:23:06;;;;;;;5.40;3.80;;;16.00;99.90;;;;;;5028199;28;20191;-63
2023/07/25 04:25:32;;;;;;;5.90;4.10;;;16.00;99.90;;;;;;5028397;28;20440;-63
2023/07/25 04:27:57;;;;;;;6.03;3.80;;;16.00;99.90;;;;;;5028553;28;20195;-63
2023/07/25 04:30:23;;;;;;;8.20;4.27;;;16.00;99.90;;;;;;5028033;28;20218;-63
2023/07/25 04:32:49;;;;;;;5.53;4.13;;;16.00;99.90;;;;;;5028242;28;20750;-63
2023/07/25 04:35:14;;;;;;;5.10;4.50;;;16.00;99.90;;;;;;5028150;28;20185;-63
2023/07/25 04:37:40;;;;;;;7.80;4.10;;;16.10;99.90;;;;;;5028019;28;20186;-63
2023/07/25 04:40:06;;;;;;;5.30;3.53;;;16.00;99.90;;;;;;5030332;28;20213;-63
2023/07/25 04:42:32;;;;;;;6.03;4.47;;;16.00;99.90;;;;;;5032373;28;20709;-63
2023/07/25 04:44:57;;;;;;;9.93;4.00;;;15.90;99.90;;;;;;5032176;28;20424;-64
2023/07/25 04:47:23;;;;;;;6.80;3.53;;;15.90;99.90;;;;;;5032082;28;20186;-63
2023/07/25 04:49:48;;;;;;;5.40;4.57;;;16.00;99.90;;;;;;5031728;28;20226;-63
2023/07/25 04:52:14;;;;;;;4.30;3.87;;;16.00;99.90;;;;;;5032433;28;20183;-63
2023/07/25 04:54:39;;;;;;;5.13;3.77;;;16.00;99.90;;;;;;5032532;28;20289;-63
2023/07/25 04:57:05;;;;;;;6.93;3.70;;;16.00;99.90;;;;;;5031587;28;20188;-63
2023/07/25 04:59:32;;;;;;;5.97;3.77;;;16.10;99.90;;;;;;5031240;28;20269;-64
2023/07/25 05:01:57;;;;;;;5.63;3.40;;;16.20;99.90;;;;;;5030930;28;20469;-63
2023/07/25 05:04:23;;;;;;;4.20;3.57;;;16.40;99.90;;;;;;5031069;28;20870;-63
2023/07/25 05:06:49;;;;;;;4.67;3.40;;;16.50;99.90;;;;;;5031167;28;20430;-63
2023/07/25 05:09:16;;;;;;;5.60;4.17;;;16.50;99.90;;;;;;5030825;28;20468;-64
2023/07/25 05:11:41;;;;;;;4.30;3.90;;;16.60;99.90;;;;;;5030798;28;20702;-63
2023/07/25 05:14:07;;;;;;;4.43;3.30;;;16.50;99.90;;;;;;5031304;28;20451;-64
2023/07/25 05:16:32;;;;;;;6.63;4.07;;;16.50;99.90;;;;;;5030904;28;20184;-63
2023/07/25 05:18:58;;;;;;;3.80;3.40;;;16.60;99.90;;;;;;5030388;28;20184;-63
2023/07/25 05:21:24;;;;;;;4.47;3.70;;;16.60;99.90;;;;;;5030366;28;20211;-64
2023/07/25 05:23:49;;;;;;;6.37;3.60;;;16.60;99.90;;;;;;5030166;28;20683;-64
2023/07/25 05:26:15;;;;;;;5.30;3.53;;;16.70;99.90;;;;;;5030015;28;20189;-64
2023/07/25 05:28:41;;;;;;;4.00;3.07;;;16.80;99.90;;;;;;5029885;28;20201;-64
2023/07/25 05:31:06;;;;;;;4.83;3.17;;;16.90;99.90;;;;;;5029600;28;20529;-64
2023/07/25 05:33:32;;;;;;;8.47;3.80;;;16.90;99.90;;;;;;5029844;28;20427;-63
2023/07/25 05:36:02;;;;;;;3.73;3.30;;;16.90;99.90;;;;;;5029818;28;20211;-64
2023/07/25 05:38:28;;;;;;;5.30;3.20;;;16.90;99.90;;;;;;5029641;28;20191;-63
2023/07/25 05:40:55;;;;;;;5.63;4.03;;;16.70;99.90;;;;;;5029687;28;20806;-63
2023/07/25 05:43:20;;;;;;;4.90;4.00;;;16.60;99.90;;;;;;5029578;28;20183;-65
2023/07/25 05:45:46;;;;;;;6.97;4.00;;;16.50;99.90;;;;;;5029598;28;20417;-63
2023/07/25 05:48:12;;;;;;;8.70;4.53;;;16.50;99.90;;;;;;5029546;28;21030;-63
2023/07/25 05:50:37;;;;;;;5.40;4.00;;;16.60;99.90;;;;;;5028741;28;20283;-63
2023/07/25 05:53:03;;;;;;;5.70;4.17;;;16.70;99.90;;;;;;5029309;28;20184;-64
2023/07/25 05:55:29;;;;;;;7.40;4.00;;;16.80;99.90;;;;;;5029443;28;20184;-63
2023/07/25 05:57:54;;;;;;;7.43;4.03;;;16.80;99.90;;;;;;5029281;28;20182;-63
2023/07/25 06:00:20;;;;;;;12.87;4.30;;;16.90;99.90;;;;;;5029018;28;20203;-63
2023/07/25 06:02:45;;;;;;;4.60;4.10;;;16.90;99.90;;;;;;5029239;28;20663;-63
2023/07/25 06:05:14;;;;;;;6.83;4.30;;;17.00;99.90;;;;;;5029277;28;20189;-64
2023/07/25 06:07:40;;;;;;;6.67;4.17;;;17.00;99.90;;;;;;5029192;28;20199;-63
2023/07/25 06:10:06;;;;;;;7.63;4.10;;;17.10;99.90;;;;;;5028898;28;20472;-63
2023/07/25 06:12:32;;;;;;;5.27;3.50;;;17.20;99.90;;;;;;5028860;28;20181;-63
2023/07/25 06:14:57;;;;;;;4.40;3.60;;;17.30;99.90;;;;;;5028912;28;20425;-63
2023/07/25 06:17:23;;;;;;;7.87;4.57;;;17.40;99.90;;;;;;5028924;28;20425;-63
2023/07/25 06:19:49;;;;;;;7.93;5.27;;;17.40;99.90;;;;;;5029114;28;20350;-63
2023/07/25 06:22:14;;;;;;;5.70;3.93;;;17.40;99.90;;;;;;5029042;28;20182;-64
2023/07/25 06:24:41;;;;;;;6.57;4.50;;;17.40;99.90;;;;;;5029287;28;20659;-63
2023/07/25 06:27:07;;;;;;;5.33;4.30;;;17.50;99.90;;;;;;5028853;28;20410;-63
2023/07/25 06:29:32;;;;;;;16.33;4.30;;;17.50;99.90;;;;;;5028670;28;20452;-63
2023/07/25 06:31:58;;;;;;;5.40;4.00;;;17.70;99.90;;;;;;5028660;28;20272;-64
2023/07/25 06:34:24;;;;;;;5.57;4.80;;;17.60;99.90;;;;;;5028618;28;20488;-64
2023/07/25 06:36:49;;;;;;;9.10;5.30;;;17.60;99.90;;;;;;5028964;28;20192;-63
2023/07/25 06:39:15;;;;;;;7.80;4.03;;;17.60;99.90;;;;;;5028436;28;20277;-63
2023/07/25 06:41:40;;;;;;;5.40;3.80;;;17.60;99.90;;;;;;5028348;28;20593;-63
2023/07/25 06:44:06;;;;;;;6.60;4.33;;;17.60;99.90;;;;;;5028445;28;20193;-63
2023/07/25 06:46:31;;;;;;;5.50;4.40;;;17.60;99.90;;;;;;5028557;28;20197;-63
2023/07/25 06:48:57;;;;;;;7.43;4.40;;;17.70;99.90;;;;;;5028485;28;20205;-65
2023/07/25 06:51:22;;;;;;;8.07;4.70;;;17.70;99.90;;;;;;5028184;28;20223;-64
2023/07/25 06:53:48;;;;;;;14.87;5.40;;;17.90;99.90;;;;;;5028321;28;20190;-63
2023/07/25 06:56:14;;;;;;;7.80;4.93;;;17.80;99.90;;;;;;5028305;28;20208;-64
2023/07/25 06:58:39;;;;;;;9.17;4.80;;;17.90;99.90;;;;;;5028340;28;20206;-64
2023/07/25 07:01:06;;;;;;;4.70;3.37;;;17.70;99.90;;;;;;5028007;28;20287;-63
2023/07/25 07:03:32;;;;;;;4.30;3.00;;;17.60;99.90;;;;;;5027200;28;20675;-63
2023/07/25 07:05:58;;;;;;;7.33;3.00;;;17.60;99.90;;;;;;5028535;28;20424;-63
2023/07/25 07:08:23;;;;;;;3.90;3.27;;;17.60;99.90;;;;;;5028806;28;20196;-63
2023/07/25 07:10:56;;;;;;;4.40;3.50;;;17.70;99.90;;;;;;5028770;28;20484;-63
2023/07/25 07:13:22;;;;;;;5.97;3.60;;;17.90;99.90;;;;;;5029288;28;20920;-63
2023/07/25 07:15:48;;;;;;;3.80;2.80;;;18.10;99.90;;;;;;5028914;28;20418;-63
2023/07/25 07:18:15;;;;;;;6.80;3.00;;;18.10;99.90;;;;;;5028508;28;20513;-63
2023/07/25 07:20:45;;;;;;;7.60;3.50;;;18.20;99.90;;;;;;5028064;28;20450;-63
2023/07/25 07:23:10;;;;;;;2.93;2.70;;;18.30;99.90;;;;;;5028069;28;20419;-63
2023/07/25 07:25:38;;;;;;;4.50;3.20;;;18.40;99.90;;;;;;5027962;28;20429;-63
2023/07/25 07:28:04;;;;;;;6.30;2.27;;;18.60;99.90;;;;;;5028430;28;21004;-64
2023/07/25 07:30:29;;;;;;;5.50;2.30;;;18.60;99.90;;;;;;5028350;28;20549;-62
2023/07/25 07:32:56;;;;;;;3.67;2.50;;;18.70;99.90;;;;;;5028350;28;20439;-63
2023/07/25 07:35:22;;;;;;;6.03;2.37;;;18.70;99.90;;;;;;5028087;28;20180;-63
2023/07/25 07:37:47;;;;;;;5.07;3.03;;;18.60;99.90;;;;;;5028032;28;20454;-63
2023/07/25 07:40:13;;;;;;;3.30;2.70;;;18.70;99.90;;;;;;5028188;28;20286;-63
2023/07/25 07:42:38;;;;;;;7.57;3.40;;;18.80;99.90;;;;;;5028327;28;20194;-63
2023/07/25 07:45:04;;;;;;;4.00;2.83;;;18.80;99.90;;;;;;5028330;28;20198;-63
2023/07/25 07:47:30;;;;;;;4.50;3.13;;;18.90;99.90;;;;;;5028167;28;20284;-63
2023/07/25 07:49:55;;;;;;;2.77;2.57;;;18.90;99.90;;;;;;5027543;28;20561;-63
2023/07/25 07:52:21;;;;;;;3.47;2.83;;;18.90;99.90;;;;;;5027474;28;20311;-63
2023/07/25 07:54:46;;;;;;;4.60;2.60;;;18.90;99.90;;;;;;5027300;28;20189;-63
2023/07/25 07:57:12;;;;;;;3.40;2.57;;;19.00;99.90;;;;;;5027659;28;20192;-65
2023/07/25 07:59:38;;;;;;;5.27;3.40;;;19.10;99.90;;;;;;5027517;28;20287;-64
2023/07/25 08:02:03;;;;;;;7.13;3.50;;;19.10;99.90;;;;;;5027073;28;20207;-63
2023/07/25 08:04:29;;;;;;;4.03;3.10;;;19.10;99.90;;;;;;5027252;28;20187;-63
2023/07/25 08:06:55;;;;;;;6.13;3.20;;;19.30;99.90;;;;;;5027232;28;20192;-64
2023/07/25 08:09:20;;;;;;;4.30;3.60;;;19.50;99.90;;;;;;5027095;28;20190;-63
2023/07/25 08:11:46;;;;;;;3.87;3.10;;;19.60;99.90;;;;;;5026983;28;20770;-64
2023/07/25 08:14:11;;;;;;;4.30;3.20;;;19.70;99.90;;;;;;5026610;28;20181;-64
2023/07/25 08:16:37;;;;;;;3.87;3.30;;;19.60;99.90;;;;;;5026744;28;20355;-63
2023/07/25 08:19:03;;;;;;;8.00;3.43;;;19.60;99.90;;;;;;5027095;28;20263;-64
2023/07/25 08:21:28;;;;;;;5.03;4.07;;;19.70;99.90;;;;;;5026756;28;20208;-63
2023/07/25 08:23:54;;;;;;;5.17;3.27;;;19.80;99.90;;;;;;5026786;28;20273;-64
2023/07/25 08:26:19;;;;;;;4.30;3.43;;;19.80;99.90;;;;;;5026791;28;20188;-63
2023/07/25 08:28:45;;;;;;;3.50;3.03;;;19.80;99.90;;;;;;5026776;28;20663;-63
2023/07/25 08:31:11;;;;;;;5.13;3.60;;;19.80;99.90;;;;;;5026561;28;20208;-63
2023/07/25 08:33:36;;;;;;;7.20;3.70;;;19.80;99.90;;;;;;5026955;28;20188;-64
2023/07/25 08:36:02;;;;;;;3.70;2.93;;;19.70;99.90;;;;;;5025021;28;20275;-64
2023/07/25 08:38:28;;;;;;;5.97;3.23;;;19.80;99.90;;;;;;5026795;28;20591;-64
2023/07/25 08:41:19;;;;;;;6.00;3.50;;;19.80;99.90;;;;;;5026485;28;20248;-64
2023/07/25 08:43:44;;;;;;;4.77;3.37;;;20.00;99.90;;;;;;5027181;28;20184;-63
2023/07/25 08:46:11;;;;;;;7.77;3.63;;;20.00;99.90;;;;;;5026458;28;20442;-64
2023/07/25 08:48:39;;;;;;;6.77;3.37;;;20.10;99.90;;;;;;5026280;28;20193;-64
2023/07/25 08:51:22;;;;;;;3.93;3.17;;;20.30;99.90;;;;;;5026423;28;20562;-64
2023/07/25 08:53:58;;;;;;;7.43;2.90;;;20.50;99.90;;;;;;5026610;28;20413;-63
2023/07/25 08:56:24;;;;;;;3.90;2.70;;;20.50;99.90;;;;;;5026519;28;20785;-64
2023/07/25 08:58:50;;;;;;;4.43;3.17;;;20.40;99.90;;;;;;5026380;28;20510;-64
2023/07/25 09:01:16;;;;;;;3.90;2.53;;;20.30;99.90;;;;;;5026304;28;20553;-64
2023/07/25 09:03:42;;;;;;;4.77;2.57;;;20.20;99.90;;;;;;5026397;28;20530;-64
2023/07/25 09:06:10;;;;;;;3.20;2.13;;;20.20;99.90;;;;;;5026706;28;20193;-64
2023/07/25 09:08:36;;;;;;;2.43;2.07;;;20.10;99.90;;;;;;5026512;28;20480;-64
2023/07/25 09:11:03;;;;;;;3.37;2.00;;;20.10;99.90;;;;;;5026307;28;20471;-64
2023/07/25 09:13:29;;;;;;;2.67;1.60;;;20.20;99.90;;;;;;5026649;28;20179;-64
2023/07/25 09:15:55;;;;;;;4.37;2.50;;;20.10;99.90;;;;;;5026348;28;20425;-64
2023/07/25 09:18:21;;;;;;;3.00;2.30;;;20.20;99.90;;;;;;5026308;28;20426;-64
2023/07/25 09:20:46;;;;;;;5.33;2.60;;;20.30;99.90;;;;;;5026569;28;20895;-64
2023/07/25 09:23:21;;;;;;;2.83;1.70;;;20.40;99.90;;;;;;5026299;28;20229;-64
2023/07/25 09:25:47;;;;;;;1.87;1.40;;;20.50;99.90;;;;;;5027832;28;20184;-64
2023/07/25 09:28:12;;;;;;;2.17;1.50;;;20.50;99.90;;;;;;5029797;28;20493;-64
2023/07/25 09:30:47;;;;;;;2.33;1.43;;;20.30;99.90;;;;;;5030152;28;20977;-64
2023/07/25 09:33:25;;;;;;;4.03;1.87;;;20.50;99.90;;;;;;5028262;28;20267;-64
2023/07/25 09:35:52;;;;;;;2.10;1.90;;;20.70;99.90;;;;;;5029920;28;20485;-64
2023/07/25 09:38:18;;;;;;;1.90;1.40;;;21.10;99.90;;;;;;5029577;28;21052;-64
2023/07/25 09:40:45;;;;;;;2.40;1.77;;;21.10;99.90;;;;;;5029482;28;20443;-64
2023/07/25 09:43:31;;;;;;;1.60;1.17;;;21.20;99.90;;;;;;5029490;28;20180;-64
2023/07/25 09:45:57;;;;;;;1.20;1.10;;;21.90;99.90;;;;;;5029613;28;20446;-63
2023/07/25 09:48:22;;;;;;;1.77;0.93;;;22.30;99.90;;;;;;5029570;28;20425;-64
2023/07/25 09:50:50;;;;;;;1.23;0.97;;;22.60;99.90;;;;;;5029561;28;20313;-64
2023/07/25 09:53:16;;;;;;;2.70;1.50;;;22.60;99.90;;;;;;5029372;28;20178;-64
2023/07/25 09:55:43;;;;;;;1.63;1.30;;;22.90;99.90;;;;;;5029456;28;20649;-64
2023/07/25 09:58:10;;;;;;;3.70;1.60;;;22.90;99.90;;;;;;5029075;28;20420;-64
2023/07/25 10:00:36;;;;;;;1.70;1.40;;;22.70;99.90;;;;;;5029395;28;20506;-63
2023/07/25 10:03:02;;;;;;;2.90;1.57;;;22.50;99.90;;;;;;5029229;28;20427;-64
2023/07/25 10:05:28;;;;;;;3.33;1.70;;;22.90;99.90;;;;;;5029260;28;20300;-64
2023/07/25 10:07:58;;;;;;;1.90;1.27;;;22.60;99.90;;;;;;5029499;28;20184;-64
2023/07/25 10:10:25;;;;;;;2.73;1.53;;;23.10;99.90;;;;;;5028946;28;20849;-64
2023/07/25 10:12:52;;;;;;;1.97;1.47;;;22.90;99.90;;;;;;5029055;28;20425;-64
2023/07/25 10:15:17;;;;;;;2.10;1.90;;;23.10;99.90;;;;;;5029047;28;20411;-64
2023/07/25 10:17:44;;;;;;;1.37;1.27;;;23.10;99.90;;;;;;5029207;28;20789;-64
2023/07/25 10:20:21;;;;;;;3.70;1.57;;;23.00;99.90;;;;;;4994689;28;20244;-65
2023/07/25 10:22:46;;;;;;;6.20;2.80;;;22.90;99.90;;;;;;5028962;28;20516;-65
2023/07/25 10:25:27;;;;;;;6.30;1.50;;;22.90;99.90;;;;;;5027648;28;20535;-65
2023/07/25 10:27:57;;;;;;;2.03;1.83;;;22.80;99.90;;;;;;5028929;28;20193;-65
2023/07/25 10:30:31;;;;;;;6.00;1.67;;;22.60;99.90;;;;;;5028645;28;20477;-65
2023/07/25 10:33:03;;;;;;;3.73;1.43;;;22.80;99.90;;;;;;5027769;28;20424;-64
2023/07/25 10:35:52;;;;;;;2.47;1.83;;;22.80;99.90;;;;;;5029093;28;20785;-64
2023/07/25 10:38:32;;;;;;;3.87;1.80;;;23.10;99.90;;;;;;5027716;28;20433;-65
2023/07/25 10:41:00;;;;;;;4.10;1.83;;;23.60;99.90;;;;;;5028556;28;20524;-64
2023/07/25 10:43:52;;;;;;;4.53;2.20;;;23.70;99.90;;;;;;5028452;28;20563;-64
2023/07/25 10:46:22;;;;;;;2.10;1.60;;;24.00;99.90;;;;;;5027362;28;20428;-64
2023/07/25 10:48:56;;;;;;;2.97;1.50;;;23.60;99.90;;;;;;5028722;28;20445;-64
2023/07/25 10:51:22;;;;;;;1.70;1.60;;;23.50;99.90;;;;;;5028170;28;20507;-65
2023/07/25 10:54:08;;;;;;;3.17;1.73;;;23.50;99.90;;;;;;5028177;28;20430;-64
2023/07/25 10:56:34;;;;;;;5.70;1.60;;;23.40;99.90;;;;;;5028158;28;20441;-63
2023/07/25 10:59:01;;;;;;;3.43;1.17;;;23.00;99.90;;;;;;5028805;28;20435;-64
2023/07/25 11:01:47;;;;;;;2.33;1.37;;;23.00;99.90;;;;;;5028038;28;20475;-64
2023/07/25 11:04:39;;;;;;;2.17;1.43;;;22.90;99.90;;;;;;5028184;28;20415;-64
2023/07/25 11:07:09;;;;;;;1.93;1.60;;;22.70;99.00;;;;;;5027065;28;20538;-64
2023/07/25 11:09:42;;;;;;;3.17;1.17;;;22.60;99.30;;;;;;5027984;28;20464;-64
2023/07/25 11:12:09;;;;;;;4.10;1.50;;;22.50;99.90;;;;;;5028014;28;20484;-64
2023/07/25 11:14:43;;;;;;;1.80;1.40;;;22.30;98.90;;;;;;5027789;28;20879;-64
2023/07/25 11:17:10;;;;;;;2.27;1.70;;;22.30;99.40;;;;;;5028228;28;20501;-63
2023/07/25 11:19:36;;;;;;;2.53;1.43;;;22.50;99.90;;;;;;5027728;28;20462;-64
2023/07/25 11:22:11;;;;;;;2.40;1.90;;;23.00;99.90;;;;;;5027789;28;20426;-64
2023/07/25 11:24:44;;;;;;;6.10;1.20;;;22.90;98.20;;;;;;5027673;28;20186;-64
2023/07/25 11:27:11;;;;;;;1.80;1.43;;;22.70;98.60;;;;;;5027654;28;20433;-64
2023/07/25 11:29:36;;;;;;;3.60;1.50;;;22.50;99.90;;;;;;5027673;28;20441;-64
2023/07/25 11:32:02;;;;;;;1.57;1.20;;;22.80;99.90;;;;;;5027740;28;20471;-64
2023/07/25 11:34:28;;;;;;;1.87;1.20;;;22.80;99.40;;;;;;5027581;28;20172;-63
2023/07/25 11:36:54;;;;;;;1.30;1.13;;;22.50;99.00;;;;;;5027682;28;20207;-64
2023/07/25 11:39:22;;;;;;;2.03;1.13;;;22.50;99.90;;;;;;5027575;28;20909;-63
2023/07/25 11:41:48;;;;;;;2.73;1.03;;;23.20;99.90;;;;;;5027384;28;20198;-64
2023/07/25 11:44:16;;;;;;;3.13;1.73;;;23.60;95.70;;;;;;5027623;28;20426;-64
2023/07/25 11:46:44;;;;;;;2.83;1.57;;;23.50;96.50;;;;;;5027432;28;20635;-64
2023/07/25 11:49:15;;;;;;;1.57;1.37;;;23.40;97.40;;;;;;5027019;28;20464;-64
2023/07/25 11:51:41;;;;;;;2.53;1.40;;;23.30;97.70;;;;;;5027244;28;20903;-64
2023/07/25 11:54:08;;;;;;;3.77;1.50;;;23.00;97.90;;;;;;5027055;28;20419;-64
2023/07/25 11:56:35;;;;;;;2.77;1.70;;;22.80;98.60;;;;;;5027099;28;20440;-64
2023/07/25 11:59:01;;;;;;;3.90;1.20;;;22.50;99.50;;;;;;5027168;28;20519;-64
2023/07/25 12:01:29;;;;;;;1.30;0.87;;;22.30;99.90;;;;;;5027015;28;20452;-64
2023/07/25 12:03:54;;;;;;;1.90;1.30;;;22.20;99.90;;;;;;5027088;28;20444;-64
2023/07/25 12:06:31;;;;;;;2.20;1.10;;;22.40;99.90;;;;;;5027101;28;20450;-64
2023/07/25 12:08:58;;;;;;;2.03;1.13;;;23.10;98.80;;;;;;5027003;28;20737;-63
2023/07/25 12:11:24;;;;;;;4.03;1.43;;;23.30;98.40;;;;;;5026923;28;20484;-64
2023/07/25 12:13:51;;;;;;;5.87;1.07;;;23.20;98.60;;;;;;5027209;28;20421;-63
2023/07/25 12:16:44;;;;;;;3.40;1.27;;;23.20;98.00;;;;;;5026924;28;20670;-64
2023/07/25 12:19:11;;;;;;;1.87;1.30;;;23.00;97.30;;;;;;5025997;28;20426;-65
2023/07/25 12:21:39;;;;;;;4.13;1.20;;;23.20;97.50;;;;;;5026823;28;20459;-64
2023/07/25 12:24:07;;;;;;;1.80;0.97;;;23.50;97.30;;;;;;5027112;28;20422;-64
2023/07/25 12:26:44;;;;;;;2.00;1.10;;;23.30;96.90;;;;;;5026971;28;20448;-63
2023/07/25 12:29:21;;;;;;;3.20;1.20;;;22.90;96.90;;;;;;5026969;28;20424;-63
2023/07/25 12:31:47;;;;;;;1.10;0.87;;;22.50;97.00;;;;;;5027390;28;20552;-64
2023/07/25 12:34:18;;;;;;;1.30;1.13;;;22.60;97.10;;;;;;5027046;28;20417;-64
2023/07/25 12:36:44;;;;;;;3.60;1.30;;;22.50;96.50;;;;;;5027345;28;20491;-63
2023/07/25 12:39:10;;;;;;;2.43;0.80;;;22.70;98.60;;;;;;5027202;28;20417;-64
2023/07/25 12:41:36;;;;;;;2.13;1.50;;;23.30;95.80;;;;;;5027073;28;20497;-63
2023/07/25 12:44:01;;;;;;;3.67;1.20;;;23.80;93.60;;;;;;5027189;28;20650;-64